Time;durP1;ratioP1;P1;durP2;ratioP2;P2;SDS_P1;SDS_P2;PMS_P1;PMS_P2;Temp;Humidity;BMP_temperature;BMP_pressure;BME280_temperature;BME280_humidity;BME280_pressure;Samples;Min_cycle;Max_cycle;Signal;HPM_P1;HPM_P2
2022/07/22 00:00:58;;;;;;;11.43;7.05;;;;;;;22.35;53.78;99351.75;5114578;28;20457;-74
2022/07/22 00:03:23;;;;;;;19.90;7.85;;;;;;;22.28;53.73;99338.38;5113733;28;20028;-74
2022/07/22 00:05:49;;;;;;;14.07;7.15;;;;;;;22.15;54.12;99340.09;5095594;28;20027;-74
2022/07/22 00:08:15;;;;;;;11.52;6.75;;;;;;;22.14;54.16;99344.16;5095899;28;20514;-74
2022/07/22 00:10:41;;;;;;;12.32;7.00;;;;;;;22.19;53.84;99348.63;5114789;27;20035;-75
2022/07/22 00:13:07;;;;;;;9.40;6.65;;;;;;;22.25;53.63;99342.06;5125698;27;20027;-75
2022/07/22 00:15:33;;;;;;;14.60;6.50;;;;;;;22.22;53.78;99340.06;5100749;28;20031;-74
2022/07/22 00:17:58;;;;;;;12.55;7.22;;;;;;;22.30;53.64;99347.28;5120455;27;20058;-74
2022/07/22 00:20:24;;;;;;;12.63;7.00;;;;;;;22.47;53.09;99338.22;5134378;27;20080;-74
2022/07/22 00:22:49;;;;;;;23.85;7.63;;;;;;;22.49;53.11;99353.69;5134271;27;20026;-74
2022/07/22 00:25:15;;;;;;;12.18;7.03;;;;;;;22.90;52.20;99354.13;5134481;27;20417;-74
2022/07/22 00:27:40;;;;;;;40.47;8.80;;;;;;;23.03;51.74;99349.53;5134304;27;20023;-75
2022/07/22 00:30:06;;;;;;;22.60;7.97;;;;;;;22.95;51.67;99356.56;5133167;27;20047;-74
2022/07/22 00:32:32;;;;;;;15.88;7.47;;;;;;;23.01;51.43;99352.00;5114188;27;20035;-74
2022/07/22 00:34:57;;;;;;;21.48;8.85;;;;;;;23.18;51.13;99358.72;5120988;27;20023;-74
2022/07/22 00:37:23;;;;;;;20.90;8.35;;;;;;;23.49;50.03;99363.72;5134035;27;20031;-75
2022/07/22 00:39:48;;;;;;;80.50;10.43;;;;;;;23.45;50.67;99369.47;5134085;27;20030;-75
2022/07/22 00:42:14;;;;;;;37.70;7.93;;;;;;;23.07;51.49;99361.72;5115531;27;20118;-74
2022/07/22 00:44:40;;;;;;;18.77;6.45;;;;;;;23.17;51.17;99359.97;5134130;27;20064;-75
2022/07/22 00:47:05;;;;;;;11.70;6.82;;;;;;;23.14;51.13;99367.31;5114207;27;20035;-75
2022/07/22 00:49:31;;;;;;;14.57;7.45;;;;;;;23.02;51.39;99362.16;5094997;28;20046;-74
2022/07/22 00:51:57;;;;;;;13.55;7.78;;;;;;;22.92;51.93;99363.91;5113614;28;20020;-75
2022/07/22 00:54:22;;;;;;;11.05;6.70;;;;;;;23.18;51.20;99363.66;5095074;27;20107;-75
2022/07/22 00:56:48;;;;;;;14.02;6.68;;;;;;;23.04;51.56;99365.41;5095701;28;20082;-74
2022/07/22 00:59:13;;;;;;;12.55;7.50;;;;;;;22.84;51.80;99354.59;5095263;28;20051;-75
2022/07/22 01:01:39;;;;;;;12.02;7.53;;;;;;;22.09;54.04;99365.34;5112420;28;20405;-74
2022/07/22 01:04:05;;;;;;;13.93;7.82;;;;;;;21.70;55.62;99370.03;5131584;27;20088;-75
2022/07/22 01:06:32;;;;;;;11.45;7.82;;;;;;;21.57;56.27;99374.53;5117784;27;20110;-74
2022/07/22 01:08:58;;;;;;;14.32;7.80;;;;;;;21.67;55.65;99368.03;5112865;28;20089;-74
2022/07/22 01:11:23;;;;;;;8.82;7.28;;;;;;;21.52;55.85;99363.59;5113646;28;20023;-74
2022/07/22 01:13:49;;;;;;;10.55;7.35;;;;;;;21.56;55.56;99368.06;5112869;28;20470;-74
2022/07/22 01:16:16;;;;;;;10.75;7.47;;;;;;;21.43;55.71;99376.22;5127050;27;20459;-74
2022/07/22 01:18:43;;;;;;;10.18;8.30;;;;;;;21.04;56.71;99362.94;5121202;27;20058;-74
2022/07/22 01:21:09;;;;;;;15.25;7.65;;;;;;;20.96;57.27;99381.22;5092205;28;20030;-75
2022/07/22 01:23:35;;;;;;;15.35;7.90;;;;;;;21.20;56.68;99376.72;5112556;27;20015;-74
2022/07/22 01:26:02;;;;;;;10.77;8.05;;;;;;;21.32;56.28;99364.06;5130649;27;20152;-74
2022/07/22 01:28:27;;;;;;;15.10;9.35;;;;;;;20.96;57.34;99364.16;5112431;28;20016;-74
2022/07/22 01:30:53;;;;;;;16.85;9.45;;;;;;;20.57;58.84;99372.28;5111803;28;20023;-74
2022/07/22 01:33:20;;;;;;;16.23;9.05;;;;;;;20.85;58.11;99367.81;5112423;28;20044;-74
2022/07/22 01:35:46;;;;;;;16.17;9.13;;;;;;;20.75;58.43;99372.28;5128240;27;20020;-74
2022/07/22 01:38:13;;;;;;;16.42;9.98;;;;;;;20.71;58.44;99370.66;5124918;27;20161;-74
2022/07/22 01:40:39;;;;;;;11.18;9.27;;;;;;;20.44;58.98;99368.22;5128137;27;20076;-74
2022/07/22 01:43:05;;;;;;;16.52;10.80;;;;;;;20.66;58.28;99365.41;5112288;28;20030;-74
2022/07/22 01:45:30;;;;;;;17.98;10.13;;;;;;;20.90;57.65;99360.91;5111335;28;20050;-74
2022/07/22 01:47:56;;;;;;;15.60;10.23;;;;;;;20.95;57.15;99369.06;5113287;27;20051;-74
2022/07/22 01:50:22;;;;;;;25.40;12.02;;;;;;;20.86;57.55;99360.13;5132786;27;20485;-75
2022/07/22 01:52:47;;;;;;;15.90;11.43;;;;;;;20.81;57.78;99369.88;5125561;27;20016;-73
2022/07/22 01:55:13;;;;;;;22.83;12.40;;;;;;;20.71;57.72;99356.44;5092866;28;20110;-74
2022/07/22 01:57:39;;;;;;;18.55;12.63;;;;;;;20.80;57.29;99356.84;5111895;28;20023;-74
2022/07/22 02:00:07;;;;;;;19.92;11.98;;;;;;;20.68;58.02;99348.75;5111298;27;20494;-74
2022/07/22 02:02:33;;;;;;;20.00;12.73;;;;;;;20.67;58.10;99352.81;5091702;28;20406;-74
2022/07/22 02:04:58;;;;;;;15.20;10.82;;;;;;;20.84;57.68;99360.53;5091523;28;20032;-74
2022/07/22 02:07:25;;;;;;;22.02;12.45;;;;;;;20.92;57.42;99357.69;5091556;28;20020;-74
2022/07/22 02:09:52;;;;;;;19.40;12.27;;;;;;;20.73;57.85;99354.00;5086726;28;20117;-74
2022/07/22 02:12:17;;;;;;;24.75;13.57;;;;;;;20.74;57.83;99355.63;5109864;27;20114;-75
2022/07/22 02:14:43;;;;;;;19.52;13.18;;;;;;;20.59;58.04;99349.16;5111880;27;20019;-74
2022/07/22 02:17:08;;;;;;;20.17;13.23;;;;;;;20.59;58.32;99352.81;5110845;28;20047;-74
2022/07/22 02:19:34;;;;;;;35.63;29.15;;;;;;;20.69;57.84;99353.22;5111562;28;20063;-74
2022/07/22 02:21:59;;;;;;;18.67;13.75;;;;;;;20.73;57.81;99351.16;5111667;28;20023;-74
2022/07/22 02:24:25;;;;;;;21.23;14.45;;;;;;;20.75;57.19;99348.72;5109846;28;20027;-74
2022/07/22 02:26:50;;;;;;;21.70;13.55;;;;;;;20.59;57.71;99352.00;5111127;28;20027;-74
2022/07/22 02:29:16;;;;;;;29.05;15.35;;;;;;;20.57;57.81;99331.69;5111527;28;20044;-74
2022/07/22 02:31:41;;;;;;;24.88;13.68;;;;;;;20.74;57.42;99347.09;5110814;28;20072;-74
2022/07/22 02:34:07;;;;;;;21.60;13.95;;;;;;;20.38;58.27;99344.28;5111720;28;20047;-74
2022/07/22 02:36:33;;;;;;;24.77;15.05;;;;;;;20.28;58.75;99346.72;5128972;28;20026;-74
2022/07/22 02:38:58;;;;;;;24.23;15.63;;;;;;;20.09;59.16;99339.41;5131929;28;20494;-74
2022/07/22 02:41:24;;;;;;;28.65;15.30;;;;;;;19.77;60.11;99328.78;5104207;28;20085;-73
2022/07/22 02:43:50;;;;;;;26.63;15.70;;;;;;;20.08;59.47;99348.31;5124665;28;20039;-74
2022/07/22 02:46:15;;;;;;;21.77;15.15;;;;;;;20.35;58.70;99354.44;5115810;28;20034;-74
2022/07/22 02:48:41;;;;;;;36.90;17.83;;;;;;;20.27;59.05;99347.94;5111430;28;20019;-74
2022/07/22 02:51:06;;;;;;;27.02;15.88;;;;;;;20.03;59.20;99346.69;5093035;28;20049;-74
2022/07/22 02:53:32;;;;;;;35.25;15.35;;;;;;;20.13;59.19;99345.06;5111269;28;20024;-74
2022/07/22 02:55:57;;;;;;;21.83;15.25;;;;;;;20.39;58.20;99343.06;5111393;28;20024;-74
2022/07/22 02:58:23;;;;;;;26.00;15.05;;;;;;;20.58;57.73;99341.88;5110083;28;20485;-74
2022/07/22 03:00:48;;;;;;;28.75;15.88;;;;;;;20.51;58.00;99339.81;5110449;28;20115;-74
2022/07/22 03:03:14;;;;;;;24.58;16.38;;;;;;;19.85;59.85;99332.44;5092191;28;20027;-74
2022/07/22 03:05:39;;;;;;;25.90;16.40;;;;;;;19.82;59.96;99339.72;5105255;28;20029;-74
2022/07/22 03:08:05;;;;;;;30.88;16.55;;;;;;;19.87;60.07;99344.19;5113430;28;20023;-73
2022/07/22 03:10:30;;;;;;;26.30;15.80;;;;;;;19.75;60.39;99339.72;5115465;28;20417;-74
2022/07/22 03:12:56;;;;;;;32.42;16.33;;;;;;;19.66;60.58;99342.13;5131894;28;20100;-73
2022/07/22 03:15:21;;;;;;;25.33;18.00;;;;;;;19.38;61.63;99344.44;5109159;28;20043;-73
2022/07/22 03:17:47;;;;;;;26.40;16.13;;;;;;;19.45;61.85;99350.16;5111216;28;20099;-74
2022/07/22 03:20:12;;;;;;;25.27;15.98;;;;;;;19.39;61.40;99350.94;5097853;28;20039;-74
2022/07/22 03:22:38;;;;;;;28.48;17.25;;;;;;;19.41;61.66;99352.13;5111326;28;20085;-74
2022/07/22 03:25:04;;;;;;;28.73;17.70;;;;;;;19.36;61.28;99350.50;5111108;28;20110;-74
2022/07/22 03:27:29;;;;;;;26.52;18.40;;;;;;;19.29;61.40;99353.31;5126912;28;20110;-74
2022/07/22 03:29:55;;;;;;;33.60;18.88;;;;;;;19.38;61.50;99352.94;5123747;28;20055;-74
2022/07/22 03:32:20;;;;;;;24.60;17.23;;;;;;;19.48;61.38;99355.00;5088239;28;20035;-79
2022/07/22 03:34:46;;;;;;;26.75;17.42;;;;;;;19.51;61.12;99356.25;5122194;28;20031;-74
2022/07/22 03:37:11;;;;;;;37.03;17.67;;;;;;;19.57;61.15;99354.63;5131597;28;20027;-74
2022/07/22 03:39:37;;;;;;;28.50;18.25;;;;;;;19.28;61.76;99360.19;5133101;27;20085;-78
2022/07/22 03:42:03;;;;;;;28.23;17.02;;;;;;;19.38;61.84;99372.78;5103926;27;20118;-77
2022/07/22 03:44:28;;;;;;;34.53;17.13;;;;;;;19.33;61.99;99359.81;5135290;27;20034;-78
2022/07/22 03:46:54;;;;;;;22.80;14.05;;;;;;;19.29;62.36;99363.81;5104980;28;20024;-75
2022/07/22 03:49:20;;;;;;;21.05;13.68;;;;;;;19.38;62.17;99361.44;5113780;28;20051;-79
2022/07/22 03:51:45;;;;;;;23.58;14.45;;;;;;;19.36;62.06;99355.38;5096119;28;20042;-84
2022/07/22 03:54:11;;;;;;;23.48;13.88;;;;;;;19.20;62.80;99367.03;5096529;28;20060;-82
2022/07/22 03:56:36;;;;;;;19.02;13.70;;;;;;;19.16;63.21;99369.03;5111361;28;20109;-75
2022/07/22 03:59:02;;;;;;;24.77;15.23;;;;;;;19.14;62.85;99365.78;5103486;28;20069;-75
2022/07/22 04:01:28;;;;;;;51.85;26.08;;;;;;;19.20;62.62;99373.53;5114242;28;20566;-74
2022/07/22 04:03:53;;;;;;;43.58;25.60;;;;;;;19.17;62.51;99374.28;5114274;28;20084;-79
2022/07/22 04:06:19;;;;;;;45.20;22.75;;;;;;;19.30;62.39;99373.94;5113140;27;20064;-74
2022/07/22 04:08:44;;;;;;;41.35;27.40;;;;;;;19.26;62.47;99370.28;5130078;27;20027;-74
2022/07/22 04:11:10;;;;;;;48.17;27.88;;;;;;;19.36;62.25;99366.72;5124915;27;20481;-74
2022/07/22 04:13:35;;;;;;;50.33;26.70;;;;;;;19.57;62.29;99368.03;5134611;27;20027;-74
2022/07/22 04:16:01;;;;;;;40.03;26.80;;;;;;;19.54;61.89;99366.78;5116952;27;20031;-74
2022/07/22 04:18:26;;;;;;;46.33;27.23;;;;;;;19.68;61.90;99371.72;5134763;27;20382;-74
2022/07/22 04:20:52;;;;;;;60.10;32.92;;;;;;;19.71;61.28;99372.91;5113960;27;20067;-74
2022/07/22 04:23:17;;;;;;;48.50;32.70;;;;;;;19.63;61.09;99366.41;5126869;27;20023;-74
2022/07/22 04:25:44;;;;;;;50.47;30.67;;;;;;;19.99;60.85;99369.38;5134330;27;20079;-74
2022/07/22 04:28:09;;;;;;;48.50;25.60;;;;;;;20.20;60.14;99362.91;5134218;27;20031;-75
2022/07/22 04:30:34;;;;;;;40.60;22.77;;;;;;;20.38;59.43;99370.66;5115885;27;20496;-74
2022/07/22 04:33:00;;;;;;;27.02;21.15;;;;;;;20.43;59.91;99383.66;5103005;28;20106;-74
2022/07/22 04:35:26;;;;;;;27.98;18.20;;;;;;;20.54;59.77;99386.50;5127546;27;20031;-74
2022/07/22 04:37:51;;;;;;;27.63;18.45;;;;;;;20.48;60.10;99374.72;5134151;27;20065;-74
2022/07/22 04:40:17;;;;;;;39.83;17.83;;;;;;;20.76;59.50;99384.47;5134126;27;20019;-74
2022/07/22 04:42:42;;;;;;;27.17;16.80;;;;;;;20.96;58.62;99387.72;5115049;27;20060;-74
2022/07/22 04:45:08;;;;;;;26.20;16.20;;;;;;;20.93;59.16;99380.00;5110044;27;20477;-74
2022/07/22 04:47:34;;;;;;;28.02;15.55;;;;;;;21.00;58.63;99379.19;5127705;27;20019;-74
2022/07/22 04:49:59;;;;;;;23.25;15.15;;;;;;;20.89;58.23;99376.34;5112462;27;20455;-74
2022/07/22 04:52:25;;;;;;;22.92;13.65;;;;;;;21.11;57.80;99373.47;5113336;28;20461;-74
2022/07/22 04:54:50;;;;;;;24.67;12.68;;;;;;;21.18;57.57;99377.09;5113351;28;20027;-74
2022/07/22 04:57:16;;;;;;;15.88;11.25;;;;;;;21.27;57.74;99371.00;5113138;28;20058;-74
2022/07/22 04:59:42;;;;;;;20.60;13.07;;;;;;;21.49;56.69;99378.66;5111673;27;20087;-75
2022/07/22 05:02:07;;;;;;;17.23;12.60;;;;;;;21.31;56.98;99379.50;5112421;27;20030;-74
2022/07/22 05:04:33;;;;;;;17.42;12.40;;;;;;;21.49;56.82;99384.34;5112819;28;20028;-74
2022/07/22 05:06:59;;;;;;;23.85;13.50;;;;;;;21.73;55.92;99383.47;5112977;28;20028;-75
2022/07/22 05:09:24;;;;;;;22.83;11.75;;;;;;;21.83;55.92;99373.25;5121004;27;20058;-75
2022/07/22 05:11:50;;;;;;;22.50;11.93;;;;;;;21.92;54.14;99381.31;5112892;28;20046;-75
2022/07/22 05:14:15;;;;;;;20.15;12.63;;;;;;;21.94;54.13;99378.84;5110315;28;20394;-75
2022/07/22 05:16:41;;;;;;;20.85;14.30;;;;;;;21.84;54.09;99371.19;5109416;28;20128;-74
2022/07/22 05:19:06;;;;;;;30.95;17.58;;;;;;;22.28;53.35;99380.28;5111774;28;20545;-75
2022/07/22 05:21:33;;;;;;;19.27;13.10;;;;;;;22.41;52.79;99378.56;5125257;27;20080;-74
2022/07/22 05:23:58;;;;;;;22.75;12.45;;;;;;;22.47;52.54;99367.53;5111622;27;20073;-75
2022/07/22 05:26:24;;;;;;;17.63;11.07;;;;;;;22.64;51.37;99362.94;5091566;28;20073;-75
2022/07/22 05:28:50;;;;;;;13.68;9.93;;;;;;;22.84;50.82;99363.16;5104191;28;20116;-75
2022/07/22 05:31:15;;;;;;;22.27;9.77;;;;;;;23.00;50.44;99364.63;5073657;28;20024;-74
2022/07/22 05:33:41;;;;;;;16.00;9.88;;;;;;;23.31;49.92;99367.59;5114052;27;20027;-74
2022/07/22 05:36:09;;;;;;;14.52;9.60;;;;;;;23.42;49.27;99365.44;5112212;28;20023;-73
2022/07/22 05:38:35;;;;;;;12.82;9.40;;;;;;;23.44;49.10;99364.19;5112303;28;20441;-75
2022/07/22 05:41:01;;;;;;;17.60;10.18;;;;;;;23.61;48.39;99368.84;5108342;28;20032;-75
2022/07/22 05:43:27;;;;;;;21.45;10.85;;;;;;;23.86;48.31;99361.22;5110975;28;20051;-75
2022/07/22 05:45:52;;;;;;;20.55;8.88;;;;;;;24.10;47.70;99371.50;5126963;27;20053;-75
2022/07/22 05:48:18;;;;;;;22.45;14.18;;;;;;;23.96;47.78;99366.75;5124084;27;20067;-75
2022/07/22 05:50:43;;;;;;;19.23;10.02;;;;;;;24.07;47.76;99371.53;5091775;28;20201;-75
2022/07/22 05:53:09;;;;;;;12.80;9.05;;;;;;;24.19;47.97;99365.25;5108690;28;20042;-75
2022/07/22 05:55:34;;;;;;;12.77;9.18;;;;;;;24.20;48.10;99368.91;5110673;28;20111;-75
2022/07/22 05:58:00;;;;;;;12.32;8.65;;;;;;;24.25;47.78;99371.28;5091898;28;20031;-76
2022/07/22 06:00:25;;;;;;;13.23;9.77;;;;;;;24.28;48.00;99363.91;5094054;28;20118;-74
2022/07/22 06:02:51;;;;;;;13.55;8.95;;;;;;;24.53;47.46;99369.19;5107542;27;20040;-78
2022/07/22 06:05:16;;;;;;;19.65;10.07;;;;;;;24.61;47.30;99364.97;5110924;27;20118;-81
2022/07/22 06:07:42;;;;;;;19.20;8.98;;;;;;;24.99;46.35;99355.38;5118327;27;20032;-81
2022/07/22 06:10:08;;;;;;;13.93;9.18;;;;;;;24.75;46.00;99358.22;5127533;27;20523;-76
2022/07/22 06:12:33;;;;;;;15.60;9.13;;;;;;;25.05;45.80;99365.03;5091120;28;20043;-77
2022/07/22 06:14:59;;;;;;;11.50;8.07;;;;;;;24.98;45.60;99359.47;5110578;27;20042;-78
2022/07/22 06:17:25;;;;;;;14.38;8.85;;;;;;;25.20;44.44;99359.03;5092991;28;20071;-80
2022/07/22 06:19:50;;;;;;;12.40;8.57;;;;;;;25.13;44.46;99360.00;5097256;28;20037;-80
2022/07/22 06:22:17;;;;;;;22.08;9.13;;;;;;;24.98;45.46;99365.19;5094149;28;20027;-80
2022/07/22 06:24:44;;;;;;;16.17;9.07;;;;;;;25.01;44.46;99364.31;5109497;28;20037;-75
2022/07/22 06:27:10;;;;;;;21.73;9.27;;;;;;;25.03;44.78;99355.28;5123784;27;20031;-76
2022/07/22 06:29:35;;;;;;;21.10;10.02;;;;;;;25.12;44.70;99360.44;5104711;28;20044;-76
2022/07/22 06:32:02;;;;;;;11.82;8.43;;;;;;;25.33;44.98;99353.47;5095676;28;20048;-75
2022/07/22 06:34:29;;;;;;;13.82;9.45;;;;;;;25.43;44.85;99355.31;5090900;28;20031;-79
2022/07/22 06:36:54;;;;;;;12.27;9.25;;;;;;;25.56;44.67;99358.34;5089621;28;20019;-75
2022/07/22 06:39:21;;;;;;;20.42;10.85;;;;;;;25.69;44.84;99357.66;5078245;28;20026;-75
2022/07/22 06:41:47;;;;;;;15.82;9.20;;;;;;;25.74;44.58;99349.38;5107247;28;20020;-76
2022/07/22 06:44:12;;;;;;;16.10;9.90;;;;;;;25.79;44.18;99348.88;5111129;28;20061;-78
2022/07/22 06:46:38;;;;;;;21.80;10.40;;;;;;;25.84;44.12;99347.53;5093301;28;20519;-76
2022/07/22 06:49:04;;;;;;;18.58;10.68;;;;;;;26.37;45.81;99348.78;5111717;28;20020;-74
2022/07/22 06:51:29;;;;;;;24.05;11.60;;;;;;;26.68;44.03;99340.66;5111817;28;20067;-76
2022/07/22 06:53:55;;;;;;;21.80;10.23;;;;;;;26.76;41.62;99332.66;5126988;28;20023;-79
2022/07/22 06:56:20;;;;;;;14.93;8.20;;;;;;;26.73;40.62;99345.81;5092197;28;20102;-77
2022/07/22 06:58:46;;;;;;;13.63;7.25;;;;;;;26.89;39.19;99333.56;5111865;28;20028;-77
2022/07/22 07:01:12;;;;;;;33.70;9.02;;;;;;;26.82;39.59;99333.72;5118569;28;20066;-77
2022/07/22 07:03:37;;;;;;;11.80;8.30;;;;;;;27.14;39.67;99332.06;5123788;28;20095;-77
2022/07/22 07:06:03;;;;;;;15.52;9.30;;;;;;;27.15;39.83;99335.72;5119474;28;20023;-78
2022/07/22 07:08:29;;;;;;;10.65;8.18;;;;;;;27.15;39.43;99333.66;5125035;28;20027;-78
2022/07/22 07:10:54;;;;;;;10.90;8.93;;;;;;;27.55;38.99;99338.31;5096549;28;20023;-77
2022/07/22 07:13:20;;;;;;;15.95;9.70;;;;;;;27.72;38.23;99333.28;5097073;28;20109;-78
2022/07/22 07:15:45;;;;;;;14.75;9.98;;;;;;;28.02;38.21;99344.69;5126891;27;20084;-78
2022/07/22 07:18:11;;;;;;;26.13;9.93;;;;;;;27.82;39.18;99348.56;5101192;28;20027;-78
2022/07/22 07:20:37;;;;;;;22.52;10.52;;;;;;;27.79;38.27;99349.50;5111695;27;20035;-77
2022/07/22 07:23:03;;;;;;;24.38;11.13;;;;;;;27.98;38.51;99344.00;5142709;27;20072;-77
2022/07/22 07:25:29;;;;;;;17.35;11.07;;;;;;;28.32;39.82;99341.75;5128928;27;20156;-77
2022/07/22 07:27:54;;;;;;;14.45;11.27;;;;;;;28.51;39.24;99345.63;5121064;28;20023;-77
2022/07/22 07:30:20;;;;;;;20.52;12.88;;;;;;;28.81;38.85;99331.84;5099862;28;20444;-78
2022/07/22 07:32:46;;;;;;;21.63;13.07;;;;;;;28.88;37.99;99337.41;5098378;28;20024;-77
2022/07/22 07:35:12;;;;;;;21.23;12.55;;;;;;;29.03;38.21;99340.56;5106392;28;20024;-77
2022/07/22 07:37:37;;;;;;;20.75;11.90;;;;;;;29.14;37.95;99351.69;5120420;28;20440;-78
2022/07/22 07:40:05;;;;;;;20.00;12.13;;;;;;;29.26;38.05;99347.94;5121521;28;20042;-78
2022/07/22 07:42:30;;;;;;;16.55;11.73;;;;;;;29.32;37.72;99333.75;5119615;27;20027;-78
2022/07/22 07:44:56;;;;;;;20.67;12.07;;;;;;;29.54;37.77;99335.88;5116879;27;20418;-78
2022/07/22 07:47:22;;;;;;;16.00;11.13;;;;;;;29.65;36.61;99342.03;5098246;27;20031;-78
2022/07/22 07:49:48;;;;;;;20.08;12.07;;;;;;;29.13;37.30;99338.56;5111388;28;20479;-78
2022/07/22 07:52:15;;;;;;;17.88;10.00;;;;;;;29.41;37.53;99318.63;5098052;28;20084;-78
2022/07/22 07:54:41;;;;;;;18.73;10.35;;;;;;;29.92;35.15;99345.50;5098258;28;20032;-78
2022/07/22 07:57:10;;;;;;;13.48;8.77;;;;;;;30.04;35.05;99338.09;5098239;28;20049;-78
2022/07/22 07:59:36;;;;;;;16.40;8.85;;;;;;;30.16;35.03;99342.13;5116682;28;20477;-78
2022/07/22 08:02:02;;;;;;;16.65;9.18;;;;;;;29.96;34.76;99341.22;5097380;28;20031;-78
2022/07/22 08:04:28;;;;;;;14.68;9.45;;;;;;;29.87;34.56;99334.59;5100292;28;20080;-78
2022/07/22 08:06:54;;;;;;;9.52;7.88;;;;;;;30.09;34.51;99337.44;5121423;27;20054;-78
2022/07/22 08:09:19;;;;;;;13.90;8.15;;;;;;;30.41;34.73;99341.09;5117812;27;20536;-78
2022/07/22 08:11:45;;;;;;;13.05;8.25;;;;;;;29.88;34.33;99333.31;5116180;27;20025;-78
2022/07/22 08:14:11;;;;;;;19.92;8.88;;;;;;;29.93;35.72;99336.41;5098462;28;20023;-77
2022/07/22 08:16:39;;;;;;;11.95;7.95;;;;;;;30.28;35.24;99335.44;5120631;28;20084;-78
2022/07/22 08:19:04;;;;;;;11.05;7.88;;;;;;;30.30;34.06;99338.69;5117002;27;20092;-77
2022/07/22 08:21:30;;;;;;;11.13;7.30;;;;;;;30.31;34.64;99340.28;5112389;28;20028;-82
2022/07/22 08:23:56;;;;;;;13.57;7.53;;;;;;;30.53;34.21;99331.53;5094848;27;20058;-82
2022/07/22 08:26:21;;;;;;;10.63;7.05;;;;;;;30.64;33.02;99324.53;5096722;28;20073;-78
2022/07/22 08:28:47;;;;;;;10.45;7.35;;;;;;;30.68;33.13;99330.94;5082360;28;20056;-77
2022/07/22 08:31:12;;;;;;;18.23;7.63;;;;;;;30.68;32.90;99325.97;5069753;28;20028;-78
2022/07/22 08:33:38;;;;;;;15.30;6.75;;;;;;;31.04;32.99;99331.47;5068329;28;20020;-78
2022/07/22 08:36:04;;;;;;;11.45;7.75;;;;;;;30.82;32.87;99333.19;5060072;28;20055;-76
2022/07/22 08:38:29;;;;;;;16.20;7.90;;;;;;;31.15;32.49;99334.66;5071786;28;20032;-79
2022/07/22 08:40:56;;;;;;;15.85;7.82;;;;;;;31.28;32.42;99325.06;5071277;28;20028;-79
2022/07/22 08:43:22;;;;;;;13.25;7.05;;;;;;;31.55;32.20;99329.19;5068404;28;20111;-78
2022/07/22 08:45:49;;;;;;;10.60;7.35;;;;;;;31.51;31.93;99327.28;5081646;28;20028;-78
2022/07/22 08:48:14;;;;;;;18.52;8.40;;;;;;;31.39;31.31;99328.25;5083865;28;20033;-78
2022/07/22 08:50:40;;;;;;;18.88;7.93;;;;;;;31.57;31.83;99324.53;5081431;28;20058;-79
2022/07/22 08:53:10;;;;;;;14.30;7.13;;;;;;;31.61;31.11;99335.91;5076648;28;20032;-81
2022/07/22 08:55:41;;;;;;;10.55;6.20;;;;;;;31.93;30.89;99322.88;5071985;28;20029;-81
2022/07/22 08:58:07;;;;;;;12.32;6.70;;;;;;;32.17;29.72;99332.88;5081469;28;20020;-81
2022/07/22 09:00:35;;;;;;;15.40;6.97;;;;;;;31.40;30.07;99326.97;5092723;28;20181;-80
2022/07/22 09:03:17;;;;;;;10.18;6.80;;;;;;;31.50;30.83;99321.97;5074106;28;20034;-77
2022/07/22 09:05:43;;;;;;;15.93;7.25;;;;;;;31.48;30.49;99310.88;5072656;28;20066;-77
2022/07/22 09:08:08;;;;;;;16.45;7.07;;;;;;;31.79;30.06;99309.88;5080307;28;20475;-78
2022/07/22 09:10:35;;;;;;;13.57;7.40;;;;;;;32.05;29.23;99323.13;5081381;28;20031;-78
2022/07/22 09:13:04;;;;;;;10.82;6.97;;;;;;;32.22;29.59;99326.44;5083452;28;20020;-78
2022/07/22 09:15:35;;;;;;;16.75;7.30;;;;;;;32.58;29.52;99326.75;5077740;28;20445;-78
2022/07/22 09:18:02;;;;;;;13.65;7.18;;;;;;;32.77;28.60;99324.53;5069916;28;20097;-80
2022/07/22 09:20:29;;;;;;;9.80;6.43;;;;;;;32.86;28.29;99332.34;5067373;28;20106;-81
2022/07/22 09:22:55;;;;;;;7.68;5.25;;;;;;;32.86;28.01;99326.53;5062860;28;20086;-82
2022/07/22 09:25:29;;;;;;;15.50;6.45;;;;;;;33.07;28.28;99329.63;5078472;28;20127;-79
2022/07/22 09:28:16;;;;;;;14.00;6.90;;;;;;;33.24;27.74;99316.28;5056322;28;20128;-81
2022/07/22 09:30:51;;;;;;;10.52;6.68;;;;;;;33.50;27.43;99324.44;5062298;28;20035;-78
2022/07/22 09:33:17;;;;;;;21.00;7.20;;;;;;;33.45;27.08;99319.34;5071828;28;20515;-79
2022/07/22 09:35:44;;;;;;;13.00;6.57;;;;;;;33.43;26.97;99316.94;5071572;28;20134;-78
2022/07/22 09:38:11;;;;;;;12.00;6.07;;;;;;;33.55;26.74;99317.16;5073111;28;20526;-78
2022/07/22 09:40:42;;;;;;;12.27;5.57;;;;;;;33.72;26.37;99323.22;5059373;28;20460;-78
2022/07/22 09:43:16;;;;;;;18.50;6.45;;;;;;;33.89;27.66;99306.13;5072206;28;20478;-78
2022/07/22 09:45:59;;;;;;;10.90;6.10;;;;;;;34.04;26.46;99306.13;5070763;28;20105;-78
2022/07/22 09:48:25;;;;;;;12.48;6.18;;;;;;;33.98;26.82;99297.34;5074827;28;20028;-78
2022/07/22 09:50:52;;;;;;;11.73;6.10;;;;;;;34.10;27.04;99297.53;5070796;28;20017;-78
2022/07/22 09:53:20;;;;;;;11.75;5.93;;;;;;;33.98;26.43;99290.72;5061772;28;20020;-78
2022/07/22 09:55:46;;;;;;;9.38;6.25;;;;;;;34.09;26.28;99290.13;5070133;28;20488;-78
2022/07/22 09:58:12;;;;;;;10.48;5.88;;;;;;;34.32;26.43;99296.28;5070993;28;20029;-78
2022/07/22 10:00:38;;;;;;;9.95;6.57;;;;;;;34.43;27.19;99299.34;5068276;28;20096;-78
2022/07/22 10:03:06;;;;;;;8.80;7.00;;;;;;;34.42;25.96;99289.81;5068678;28;20545;-78
2022/07/22 10:05:35;;;;;;;15.30;6.45;;;;;;;34.50;26.25;99290.19;5073580;28;20032;-78
2022/07/22 10:08:02;;;;;;;19.83;6.25;;;;;;;34.33;25.75;99286.25;5069195;28;20502;-78
2022/07/22 10:10:29;;;;;;;7.82;6.22;;;;;;;34.30;25.84;99288.88;5070638;28;20020;-78
2022/07/22 10:12:57;;;;;;;12.13;6.28;;;;;;;34.72;26.04;99278.13;5074473;28;20059;-78
2022/07/22 10:15:25;;;;;;;12.77;6.30;;;;;;;35.02;24.69;99282.94;5070260;28;20028;-77
2022/07/22 10:17:53;;;;;;;8.77;5.78;;;;;;;35.05;25.68;99276.16;5071994;28;20035;-78
2022/07/22 10:20:24;;;;;;;20.38;6.65;;;;;;;35.16;24.75;99280.47;5077523;28;20027;-78
2022/07/22 10:22:53;;;;;;;14.07;6.15;;;;;;;34.11;25.78;99265.13;5058648;28;20096;-77
2022/07/22 10:25:21;;;;;;;26.40;6.87;;;;;;;34.72;25.87;99272.31;5068560;28;20032;-79
2022/07/22 10:27:58;;;;;;;9.05;5.63;;;;;;;35.32;25.18;99265.31;5067661;28;20024;-76
2022/07/22 10:30:30;;;;;;;13.55;5.80;;;;;;;35.61;25.31;99254.00;5075281;28;20051;-79
2022/07/22 10:33:13;;;;;;;12.00;6.60;;;;;;;35.45;24.26;99264.13;5091292;28;20064;-83
2022/07/22 10:36:03;;;;;;;17.35;6.75;;;;;;;35.54;24.92;99258.16;5087587;28;20443;-77
2022/07/22 10:38:30;;;;;;;17.58;5.88;;;;;;;35.42;25.07;99257.25;5086395;28;20059;-79
2022/07/22 10:41:00;;;;;;;11.20;5.20;;;;;;;35.54;23.92;99258.97;5089897;28;20023;-84
2022/07/22 10:43:52;;;;;;;10.18;6.05;;;;;;;35.78;23.60;99236.69;5090557;28;20024;-81
2022/07/22 10:46:18;;;;;;;12.02;4.68;;;;;;;35.91;22.93;99244.97;5040413;28;20043;-77
2022/07/22 10:48:45;;;;;;;7.97;4.78;;;;;;;35.98;23.33;99251.09;5091594;28;20108;-78
2022/07/22 10:51:14;;;;;;;10.10;5.53;;;;;;;35.93;23.31;99259.78;5091431;28;20028;-81
2022/07/22 10:53:41;;;;;;;9.95;5.80;;;;;;;36.11;23.35;99250.69;5087150;28;20028;-80
2022/07/22 10:56:14;;;;;;;10.77;5.32;;;;;;;36.41;21.90;99252.44;5091203;28;20039;-80
2022/07/22 10:58:43;;;;;;;11.73;6.00;;;;;;;36.37;23.49;99254.81;5083816;28;21378;-80
2022/07/22 11:01:12;;;;;;;12.38;5.40;;;;;;;36.35;23.54;99248.72;5084847;28;20037;-76
2022/07/22 11:03:39;;;;;;;10.43;5.05;;;;;;;36.65;22.47;99242.50;5089648;28;20534;-82
2022/07/22 11:06:17;;;;;;;11.20;5.22;;;;;;;36.69;22.23;99251.81;5089892;28;20710;-78
2022/07/22 11:08:44;;;;;;;10.00;5.32;;;;;;;36.64;22.87;99238.81;5091530;28;20043;-76
2022/07/22 11:11:10;;;;;;;7.20;5.47;;;;;;;36.94;22.53;99252.16;5093953;28;20113;-76
2022/07/22 11:13:41;;;;;;;6.90;5.40;;;;;;;36.71;21.97;99240.44;5094918;28;20483;-75
2022/07/22 11:16:15;;;;;;;8.57;5.25;;;;;;;36.37;21.87;99238.13;5093189;28;20020;-78
2022/07/22 11:18:53;;;;;;;9.93;5.50;;;;;;;36.59;22.02;99239.56;5094382;28;20032;-78